AUL875 USSS-UWWW
Flight info
| Callsign | AUL875 |
|---|---|
| Flight time | 1h 27m |
| Altitude | 38000 |
| Route | UMTEK6B UMTEK M864 AGNOK T796 NUTNO/K0756F280 T690 DOGUR DOGUR7T |
| Aircraft | B738/M-SDE2E3FGHIRWXY/LB1 |
Departure
| Time | 2026-04-27 18:20 |
|---|---|
| Airport | Koltsovo Airport (USSS) |
Arrival
| Time | 2026-04-27 19:48 |
|---|---|
| Airport | Kurumoch International Airport (UWWW) |
| Time | Latitude | Longitude | Altitude | Speed | Heading |
|---|---|---|---|---|---|
| 2026-04-27 17:45 | 56.74934 | 60.80387 | 776 ft | 0 kts | 0° |
| 2026-04-27 17:46 | 56.74927 | 60.80495 | 776 ft | 0 kts | 0° |
| 2026-04-27 18:06 | 56.74922 | 60.80495 | 776 ft | 2 kts | 0° |
| 2026-04-27 18:06 | 56.74907 | 60.80495 | 776 ft | 2 kts | 0° |
| 2026-04-27 18:06 | 56.74891 | 60.80495 | 776 ft | 2 kts | 0° |
| 2026-04-27 18:07 | 56.74882 | 60.80495 | 776 ft | 2 kts | 0° |
| 2026-04-27 18:07 | 56.74868 | 60.80501 | 776 ft | 2 kts | 329° |
| 2026-04-27 18:07 | 56.74856 | 60.80519 | 776 ft | 2 kts | 305° |
| 2026-04-27 18:07 | 56.74850 | 60.80544 | 776 ft | 2 kts | 280° |
| 2026-04-27 18:08 | 56.74849 | 60.80557 | 776 ft | 1 kts | 266° |
| 2026-04-27 18:08 | 56.74849 | 60.80564 | 776 ft | 0 kts | 270° |
| 2026-04-27 18:11 | 56.74849 | 60.80563 | 776 ft | 0 kts | 270° |
| 2026-04-27 18:12 | 56.74850 | 60.80535 | 776 ft | 5 kts | 272° |
| 2026-04-27 18:12 | 56.74851 | 60.80423 | 776 ft | 12 kts | 270° |
| 2026-04-27 18:12 | 56.74851 | 60.80228 | 776 ft | 18 kts | 270° |
| 2026-04-27 18:12 | 56.74852 | 60.79975 | 776 ft | 21 kts | 270° |
| 2026-04-27 18:13 | 56.74851 | 60.79699 | 776 ft | 22 kts | 271° |
| 2026-04-27 18:13 | 56.74852 | 60.79423 | 776 ft | 21 kts | 270° |
| 2026-04-27 18:13 | 56.74854 | 60.79161 | 776 ft | 17 kts | 274° |
| 2026-04-27 18:13 | 56.74856 | 60.78945 | 776 ft | 16 kts | 270° |
| 2026-04-27 18:14 | 56.74857 | 60.78731 | 776 ft | 17 kts | 270° |
| 2026-04-27 18:14 | 56.74857 | 60.78504 | 776 ft | 17 kts | 270° |
| 2026-04-27 18:14 | 56.74858 | 60.78289 | 776 ft | 16 kts | 271° |
| 2026-04-27 18:14 | 56.74838 | 60.78158 | 776 ft | 8 kts | 204° |
| 2026-04-27 18:15 | 56.74758 | 60.78149 | 776 ft | 14 kts | 180° |
| 2026-04-27 18:15 | 56.74664 | 60.78149 | 776 ft | 12 kts | 180° |
| 2026-04-27 18:15 | 56.74609 | 60.78149 | 776 ft | 0 kts | 180° |
| 2026-04-27 18:17 | 56.74607 | 60.78149 | 776 ft | 2 kts | 180° |
| 2026-04-27 18:17 | 56.74570 | 60.78148 | 776 ft | 8 kts | 180° |
| 2026-04-27 18:17 | 56.74489 | 60.78148 | 776 ft | 14 kts | 180° |
| 2026-04-27 18:18 | 56.74381 | 60.78094 | 776 ft | 17 kts | 205° |
| 2026-04-27 18:18 | 56.74283 | 60.78014 | 776 ft | 12 kts | 200° |
| 2026-04-27 18:18 | 56.74227 | 60.78074 | 776 ft | 11 kts | 102° |
| 2026-04-27 18:18 | 56.74223 | 60.78153 | 776 ft | 0 kts | 95° |
| 2026-04-27 18:19 | 56.74222 | 60.78159 | 776 ft | 3 kts | 95° |
| 2026-04-27 18:19 | 56.74206 | 60.78526 | 776 ft | 64 kts | 95° |
| 2026-04-27 18:20 | 56.74158 | 60.79771 | 777 ft | 129 kts | 95° |
| 2026-04-27 18:20 | 56.74092 | 60.81673 | 955 ft | 163 kts | 96° |
| 2026-04-27 18:20 | 56.74071 | 60.83680 | 1647 ft | 158 kts | 98° |
| 2026-04-27 18:20 | 56.74050 | 60.85643 | 2228 ft | 161 kts | 101° |
| 2026-04-27 18:21 | 56.73913 | 60.87771 | 2533 ft | 179 kts | 108° |
| 2026-04-27 18:21 | 56.73749 | 60.90112 | 2966 ft | 198 kts | 103° |
| 2026-04-27 18:21 | 56.73636 | 60.92736 | 3416 ft | 216 kts | 102° |
| 2026-04-27 18:21 | 56.73522 | 60.95526 | 3919 ft | 230 kts | 102° |
| 2026-04-27 18:22 | 56.73397 | 60.98518 | 4451 ft | 244 kts | 103° |
| 2026-04-27 18:22 | 56.72922 | 61.01468 | 4955 ft | 246 kts | 128° |
| 2026-04-27 18:22 | 56.71861 | 61.03876 | 5696 ft | 244 kts | 138° |
| 2026-04-27 18:22 | 56.70584 | 61.05887 | 6420 ft | 243 kts | 154° |
| 2026-04-27 18:23 | 56.69009 | 61.06881 | 7162 ft | 241 kts | 173° |
| 2026-04-27 18:23 | 56.67350 | 61.07124 | 7893 ft | 243 kts | 184° |
| 2026-04-27 18:23 | 56.65691 | 61.06469 | 8590 ft | 246 kts | 204° |
| 2026-04-27 18:23 | 56.64246 | 61.04881 | 9312 ft | 249 kts | 217° |
| 2026-04-27 18:24 | 56.63039 | 61.02638 | 9993 ft | 255 kts | 233° |
| 2026-04-27 18:24 | 56.62310 | 60.99680 | 10682 ft | 263 kts | 252° |
| 2026-04-27 18:24 | 56.62066 | 60.96341 | 11417 ft | 269 kts | 267° |
| 2026-04-27 18:24 | 56.62443 | 60.92987 | 12124 ft | 280 kts | 288° |
| 2026-04-27 18:25 | 56.63473 | 60.89973 | 12834 ft | 290 kts | 306° |
| 2026-04-27 18:25 | 56.65032 | 60.87600 | 13531 ft | 302 kts | 327° |
| 2026-04-27 18:25 | 56.67036 | 60.86375 | 14245 ft | 311 kts | 345° |
| 2026-04-27 18:25 | 56.69190 | 60.85597 | 14852 ft | 316 kts | 340° |
| 2026-04-27 18:26 | 56.71092 | 60.83703 | 15188 ft | 320 kts | 311° |
| 2026-04-27 18:26 | 56.72288 | 60.80310 | 15530 ft | 322 kts | 283° |
| 2026-04-27 18:26 | 56.72605 | 60.76263 | 15889 ft | 330 kts | 270° |
| 2026-04-27 18:26 | 56.72832 | 60.71967 | 16232 ft | 346 kts | 274° |
| 2026-04-27 18:27 | 56.73185 | 60.67616 | 16754 ft | 355 kts | 275° |
| 2026-04-27 18:27 | 56.73573 | 60.63093 | 17446 ft | 359 kts | 275° |
| 2026-04-27 18:27 | 56.73945 | 60.58620 | 18140 ft | 362 kts | 275° |
| 2026-04-27 18:27 | 56.74313 | 60.54080 | 18808 ft | 365 kts | 275° |
| 2026-04-27 18:28 | 56.74681 | 60.49462 | 19488 ft | 367 kts | 274° |
| 2026-04-27 18:28 | 56.75042 | 60.44849 | 20085 ft | 371 kts | 274° |
| 2026-04-27 18:28 | 56.75404 | 60.40202 | 20696 ft | 375 kts | 274° |
| 2026-04-27 18:28 | 56.75774 | 60.35416 | 21313 ft | 378 kts | 274° |
| 2026-04-27 18:29 | 56.76141 | 60.30649 | 21906 ft | 381 kts | 273° |
| 2026-04-27 18:29 | 56.76509 | 60.25853 | 22507 ft | 383 kts | 272° |
| 2026-04-27 18:29 | 56.76878 | 60.20997 | 23057 ft | 387 kts | 272° |
| 2026-04-27 18:29 | 56.77245 | 60.16156 | 23605 ft | 390 kts | 272° |
| 2026-04-27 18:30 | 56.77615 | 60.11235 | 24130 ft | 393 kts | 272° |
| 2026-04-27 18:30 | 56.77988 | 60.06266 | 24667 ft | 396 kts | 272° |
| 2026-04-27 18:30 | 56.78357 | 60.01317 | 25215 ft | 398 kts | 272° |
| 2026-04-27 18:30 | 56.78731 | 59.96268 | 25705 ft | 401 kts | 272° |
| 2026-04-27 18:31 | 56.79107 | 59.91165 | 26279 ft | 402 kts | 272° |
| 2026-04-27 18:31 | 56.79477 | 59.86109 | 26737 ft | 405 kts | 272° |
| 2026-04-27 18:31 | 56.79847 | 59.81027 | 27192 ft | 408 kts | 272° |
| 2026-04-27 18:31 | 56.80219 | 59.75898 | 27746 ft | 408 kts | 272° |
| 2026-04-27 18:32 | 56.80592 | 59.70712 | 28158 ft | 412 kts | 272° |
| 2026-04-27 18:32 | 56.80962 | 59.65510 | 28549 ft | 415 kts | 272° |
| 2026-04-27 18:32 | 56.81335 | 59.60267 | 28993 ft | 418 kts | 271° |
| 2026-04-27 18:32 | 56.81710 | 59.54947 | 29413 ft | 420 kts | 271° |
| 2026-04-27 18:33 | 56.82081 | 59.49681 | 29862 ft | 421 kts | 271° |
| 2026-04-27 18:33 | 56.82457 | 59.44289 | 30212 ft | 425 kts | 271° |
| 2026-04-27 18:33 | 56.82824 | 59.39008 | 30736 ft | 424 kts | 271° |
| 2026-04-27 18:33 | 56.83199 | 59.33609 | 31354 ft | 420 kts | 270° |
| 2026-04-27 18:34 | 56.83560 | 59.28386 | 31948 ft | 416 kts | 270° |
| 2026-04-27 18:34 | 56.83918 | 59.23156 | 32482 ft | 413 kts | 270° |
| 2026-04-27 18:34 | 56.84267 | 59.18005 | 32907 ft | 413 kts | 270° |
| 2026-04-27 18:34 | 56.84616 | 59.12795 | 33346 ft | 411 kts | 270° |
| 2026-04-27 18:35 | 56.84959 | 59.07656 | 33804 ft | 409 kts | 270° |
| 2026-04-27 18:35 | 56.85223 | 59.02533 | 34169 ft | 406 kts | 266° |
| 2026-04-27 18:35 | 56.85332 | 58.97418 | 34664 ft | 401 kts | 264° |
| 2026-04-27 18:35 | 56.85394 | 58.92299 | 34952 ft | 402 kts | 264° |
| 2026-04-27 18:36 | 56.85453 | 58.87239 | 35229 ft | 403 kts | 264° |
| 2026-04-27 18:36 | 56.85522 | 58.82072 | 35623 ft | 400 kts | 265° |
| 2026-04-27 18:36 | 56.85595 | 58.76998 | 35783 ft | 404 kts | 265° |
| 2026-04-27 18:36 | 56.85671 | 58.71838 | 36044 ft | 404 kts | 265° |
| 2026-04-27 18:37 | 56.85749 | 58.66797 | 36384 ft | 403 kts | 265° |
| 2026-04-27 18:37 | 56.85828 | 58.61661 | 36660 ft | 404 kts | 265° |
| 2026-04-27 18:37 | 56.85905 | 58.56530 | 37000 ft | 403 kts | 265° |
| 2026-04-27 18:37 | 56.85981 | 58.51442 | 37258 ft | 403 kts | 265° |
| 2026-04-27 18:38 | 56.86053 | 58.46349 | 37500 ft | 404 kts | 265° |
| 2026-04-27 18:38 | 56.86125 | 58.41219 | 37732 ft | 404 kts | 265° |
| 2026-04-27 18:38 | 56.86196 | 58.36055 | 37889 ft | 406 kts | 265° |
| 2026-04-27 18:38 | 56.86266 | 58.30834 | 37888 ft | 408 kts | 265° |
| 2026-04-27 18:39 | 56.86402 | 58.20547 | 37886 ft | 404 kts | 264° |
| 2026-04-27 18:39 | 56.86525 | 58.10301 | 37879 ft | 406 kts | 264° |
| 2026-04-27 18:40 | 56.86640 | 58.00000 | 37874 ft | 406 kts | 264° |
| 2026-04-27 18:40 | 56.86749 | 57.89750 | 37868 ft | 404 kts | 264° |
| 2026-04-27 18:41 | 56.86847 | 57.79458 | 37860 ft | 405 kts | 264° |
| 2026-04-27 18:41 | 56.86937 | 57.69219 | 37852 ft | 405 kts | 264° |
| 2026-04-27 18:42 | 56.87006 | 57.60647 | 37851 ft | 405 kts | 264° |
| 2026-04-27 18:42 | 56.87093 | 57.48726 | 37844 ft | 405 kts | 264° |
| 2026-04-27 18:43 | 56.87159 | 57.38393 | 37841 ft | 405 kts | 264° |
| 2026-04-27 18:43 | 56.87214 | 57.28274 | 37833 ft | 405 kts | 263° |
| 2026-04-27 18:44 | 56.87265 | 57.18006 | 37818 ft | 403 kts | 263° |
| 2026-04-27 18:44 | 56.87303 | 57.07788 | 37813 ft | 405 kts | 263° |
| 2026-04-27 18:45 | 56.87333 | 56.97413 | 37814 ft | 406 kts | 262° |
| 2026-04-27 18:45 | 56.87358 | 56.87163 | 37811 ft | 405 kts | 262° |
| 2026-04-27 18:46 | 56.87371 | 56.76872 | 37807 ft | 405 kts | 262° |
| 2026-04-27 18:46 | 56.87377 | 56.66643 | 37797 ft | 406 kts | 262° |
| 2026-04-27 18:47 | 56.87374 | 56.56431 | 37797 ft | 407 kts | 262° |
| 2026-04-27 18:47 | 56.87364 | 56.46107 | 37788 ft | 408 kts | 262° |
| 2026-04-27 18:48 | 56.87425 | 56.35706 | 37785 ft | 409 kts | 263° |
| 2026-04-27 18:48 | 56.87546 | 56.25236 | 37779 ft | 409 kts | 263° |
| 2026-04-27 18:49 | 56.87647 | 56.14869 | 37768 ft | 409 kts | 262° |
| 2026-04-27 18:49 | 56.87733 | 56.04490 | 37765 ft | 411 kts | 263° |
| 2026-04-27 18:50 | 56.87614 | 55.94170 | 37746 ft | 404 kts | 256° |
| 2026-04-27 18:50 | 56.86332 | 55.84488 | 37747 ft | 391 kts | 242° |
| 2026-04-27 18:51 | 56.84270 | 55.75306 | 37732 ft | 391 kts | 241° |
| 2026-04-27 18:51 | 56.82188 | 55.66207 | 37745 ft | 392 kts | 241° |
| 2026-04-27 18:52 | 56.80068 | 55.57003 | 37748 ft | 391 kts | 241° |
| 2026-04-27 18:53 | 56.76915 | 55.43409 | 37733 ft | 389 kts | 241° |
| 2026-04-27 18:53 | 56.74791 | 55.34306 | 37721 ft | 389 kts | 240° |
| 2026-04-27 18:54 | 56.72683 | 55.25312 | 37726 ft | 390 kts | 240° |
| 2026-04-27 18:54 | 56.70536 | 55.16193 | 37724 ft | 391 kts | 240° |
| 2026-04-27 18:55 | 56.68393 | 55.07128 | 37718 ft | 391 kts | 240° |
| 2026-04-27 18:55 | 56.66244 | 54.98079 | 37727 ft | 392 kts | 240° |
| 2026-04-27 18:56 | 56.64075 | 54.88983 | 37724 ft | 392 kts | 240° |
| 2026-04-27 18:56 | 56.61903 | 54.79910 | 37697 ft | 393 kts | 240° |
| 2026-04-27 18:57 | 56.59716 | 54.70812 | 37730 ft | 394 kts | 240° |
| 2026-04-27 18:57 | 56.57538 | 54.61787 | 37723 ft | 392 kts | 240° |
| 2026-04-27 18:58 | 56.55349 | 54.52765 | 37740 ft | 390 kts | 240° |
| 2026-04-27 18:58 | 56.53171 | 54.43809 | 37717 ft | 389 kts | 239° |
| 2026-04-27 18:59 | 56.50971 | 54.34827 | 37742 ft | 394 kts | 239° |
| 2026-04-27 18:59 | 56.48773 | 54.25868 | 37718 ft | 390 kts | 239° |
| 2026-04-27 19:00 | 56.46550 | 54.16871 | 37729 ft | 392 kts | 238° |
| 2026-04-27 19:00 | 56.44343 | 54.07977 | 37717 ft | 389 kts | 239° |
| 2026-04-27 19:01 | 56.42117 | 53.99044 | 37725 ft | 392 kts | 239° |
| 2026-04-27 19:01 | 56.39875 | 53.90072 | 37724 ft | 394 kts | 239° |
| 2026-04-27 19:02 | 56.37644 | 53.81123 | 37718 ft | 391 kts | 239° |
| 2026-04-27 19:02 | 56.35391 | 53.72140 | 37739 ft | 394 kts | 239° |
| 2026-04-27 19:03 | 56.33134 | 53.63178 | 37738 ft | 395 kts | 239° |
| 2026-04-27 19:03 | 56.30839 | 53.54199 | 37740 ft | 395 kts | 239° |
| 2026-04-27 19:04 | 56.28545 | 53.45309 | 37724 ft | 394 kts | 239° |
| 2026-04-27 19:04 | 56.26231 | 53.36379 | 37743 ft | 395 kts | 238° |
| 2026-04-27 19:05 | 56.23891 | 53.27370 | 37725 ft | 394 kts | 238° |
| 2026-04-27 19:05 | 56.21552 | 53.18414 | 37730 ft | 397 kts | 238° |
| 2026-04-27 19:06 | 56.19191 | 53.09411 | 37727 ft | 397 kts | 238° |
| 2026-04-27 19:06 | 56.16855 | 53.00514 | 37728 ft | 396 kts | 238° |
| 2026-04-27 19:07 | 56.14484 | 52.91555 | 37729 ft | 399 kts | 238° |
| 2026-04-27 19:07 | 56.12099 | 52.82554 | 37726 ft | 399 kts | 238° |
| 2026-04-27 19:08 | 56.09734 | 52.73660 | 37729 ft | 398 kts | 238° |
| 2026-04-27 19:08 | 56.07321 | 52.64625 | 37723 ft | 402 kts | 238° |
| 2026-04-27 19:09 | 56.04919 | 52.55635 | 37724 ft | 400 kts | 238° |
| 2026-04-27 19:09 | 56.02541 | 52.46697 | 37708 ft | 402 kts | 238° |
| 2026-04-27 19:10 | 56.00150 | 52.37760 | 37706 ft | 403 kts | 238° |
| 2026-04-27 19:10 | 55.97716 | 52.28698 | 37706 ft | 402 kts | 238° |
| 2026-04-27 19:11 | 55.95294 | 52.19713 | 37715 ft | 404 kts | 238° |
| 2026-04-27 19:11 | 55.92858 | 52.10720 | 37704 ft | 403 kts | 238° |
| 2026-04-27 19:12 | 55.90416 | 52.01734 | 37703 ft | 405 kts | 238° |
| 2026-04-27 19:12 | 55.87902 | 51.92530 | 37685 ft | 406 kts | 238° |
| 2026-04-27 19:13 | 55.85464 | 51.83631 | 37708 ft | 407 kts | 238° |
| 2026-04-27 19:13 | 55.82973 | 51.74572 | 37699 ft | 408 kts | 238° |
| 2026-04-27 19:14 | 55.80468 | 51.65509 | 37713 ft | 410 kts | 238° |
| 2026-04-27 19:14 | 55.77955 | 51.56443 | 37707 ft | 409 kts | 238° |
| 2026-04-27 19:15 | 55.75348 | 51.47440 | 37706 ft | 408 kts | 234° |
| 2026-04-27 19:15 | 55.71759 | 51.39913 | 37718 ft | 398 kts | 216° |
| 2026-04-27 19:16 | 55.67165 | 51.34595 | 37700 ft | 394 kts | 205° |
| 2026-04-27 19:16 | 55.62210 | 51.30461 | 37727 ft | 396 kts | 203° |
| 2026-04-27 19:17 | 55.57252 | 51.26405 | 37716 ft | 396 kts | 204° |
| 2026-04-27 19:17 | 55.52255 | 51.22292 | 37724 ft | 395 kts | 204° |
| 2026-04-27 19:18 | 55.47302 | 51.18215 | 37396 ft | 390 kts | 203° |
| 2026-04-27 19:18 | 55.44856 | 51.16203 | 36862 ft | 390 kts | 204° |
| 2026-04-27 19:18 | 55.42396 | 51.14182 | 36248 ft | 392 kts | 204° |
| 2026-04-27 19:18 | 55.39925 | 51.12152 | 35752 ft | 389 kts | 204° |
| 2026-04-27 19:19 | 55.37507 | 51.10170 | 35308 ft | 386 kts | 204° |
| 2026-04-27 19:19 | 55.35059 | 51.08170 | 34835 ft | 382 kts | 204° |
| 2026-04-27 19:19 | 55.32669 | 51.06220 | 34492 ft | 375 kts | 204° |
| 2026-04-27 19:19 | 55.30323 | 51.04310 | 34021 ft | 373 kts | 204° |
| 2026-04-27 19:20 | 55.27970 | 51.02393 | 33595 ft | 368 kts | 204° |
| 2026-04-27 19:20 | 55.25702 | 51.00548 | 33216 ft | 362 kts | 204° |
| 2026-04-27 19:20 | 55.23417 | 50.98691 | 32871 ft | 357 kts | 204° |
| 2026-04-27 19:20 | 55.21192 | 50.96883 | 32556 ft | 350 kts | 204° |
| 2026-04-27 19:21 | 55.18976 | 50.95086 | 32157 ft | 346 kts | 204° |
| 2026-04-27 19:21 | 55.16832 | 50.93351 | 31846 ft | 340 kts | 204° |
| 2026-04-27 19:21 | 55.14719 | 50.91642 | 31490 ft | 335 kts | 204° |
| 2026-04-27 19:21 | 55.12631 | 50.89956 | 31149 ft | 329 kts | 204° |
| 2026-04-27 19:22 | 55.10544 | 50.88271 | 30734 ft | 326 kts | 204° |
| 2026-04-27 19:22 | 55.08526 | 50.86644 | 30438 ft | 319 kts | 204° |
| 2026-04-27 19:22 | 55.06515 | 50.85025 | 30121 ft | 314 kts | 204° |
| 2026-04-27 19:22 | 55.04557 | 50.83450 | 29672 ft | 312 kts | 204° |
| 2026-04-27 19:23 | 55.02592 | 50.81871 | 29258 ft | 309 kts | 203° |
| 2026-04-27 19:23 | 55.00671 | 50.80327 | 28844 ft | 306 kts | 204° |
| 2026-04-27 19:23 | 54.98745 | 50.78780 | 28397 ft | 303 kts | 204° |
| 2026-04-27 19:23 | 54.96856 | 50.77262 | 27991 ft | 300 kts | 203° |
| 2026-04-27 19:24 | 54.94980 | 50.75761 | 27518 ft | 297 kts | 203° |
| 2026-04-27 19:24 | 54.93105 | 50.74261 | 27070 ft | 293 kts | 203° |
| 2026-04-27 19:24 | 54.91282 | 50.72803 | 26629 ft | 289 kts | 204° |
| 2026-04-27 19:24 | 54.89449 | 50.71339 | 26116 ft | 287 kts | 203° |
| 2026-04-27 19:25 | 54.87624 | 50.69886 | 25679 ft | 284 kts | 203° |
| 2026-04-27 19:25 | 54.85941 | 50.68544 | 25262 ft | 282 kts | 203° |
| 2026-04-27 19:25 | 54.84273 | 50.67217 | 24882 ft | 279 kts | 204° |
| 2026-04-27 19:25 | 54.82496 | 50.65802 | 24411 ft | 277 kts | 203° |
| 2026-04-27 19:26 | 54.80740 | 50.64404 | 24013 ft | 273 kts | 204° |
| 2026-04-27 19:26 | 54.79002 | 50.63025 | 23460 ft | 276 kts | 204° |
| 2026-04-27 19:26 | 54.77268 | 50.61653 | 22907 ft | 277 kts | 204° |
| 2026-04-27 19:26 | 54.75504 | 50.60254 | 22438 ft | 276 kts | 203° |
| 2026-04-27 19:27 | 54.73781 | 50.58888 | 21961 ft | 275 kts | 204° |
| 2026-04-27 19:27 | 54.72031 | 50.57503 | 21424 ft | 276 kts | 204° |
| 2026-04-27 19:27 | 54.70311 | 50.56146 | 20969 ft | 275 kts | 204° |
| 2026-04-27 19:27 | 54.68561 | 50.54764 | 20496 ft | 274 kts | 204° |
| 2026-04-27 19:28 | 54.66818 | 50.53389 | 20015 ft | 275 kts | 204° |
| 2026-04-27 19:28 | 54.65093 | 50.52029 | 19502 ft | 276 kts | 204° |
| 2026-04-27 19:28 | 54.63340 | 50.50650 | 19071 ft | 274 kts | 205° |
| 2026-04-27 19:28 | 54.61598 | 50.49280 | 18549 ft | 275 kts | 204° |
| 2026-04-27 19:29 | 54.59873 | 50.47924 | 18052 ft | 274 kts | 204° |
| 2026-04-27 19:29 | 54.58136 | 50.46558 | 17675 ft | 270 kts | 205° |
| 2026-04-27 19:29 | 54.56457 | 50.45241 | 17319 ft | 266 kts | 205° |
| 2026-04-27 19:29 | 54.54776 | 50.43923 | 16963 ft | 263 kts | 205° |
| 2026-04-27 19:30 | 54.53101 | 50.42610 | 16610 ft | 267 kts | 205° |
| 2026-04-27 19:30 | 54.51390 | 50.41272 | 16238 ft | 271 kts | 205° |
| 2026-04-27 19:30 | 54.49678 | 50.39933 | 15878 ft | 266 kts | 205° |
| 2026-04-27 19:30 | 54.48015 | 50.38636 | 15537 ft | 262 kts | 205° |
| 2026-04-27 19:31 | 54.46384 | 50.37363 | 15187 ft | 261 kts | 205° |
| 2026-04-27 19:31 | 54.44706 | 50.36055 | 14822 ft | 265 kts | 205° |
| 2026-04-27 19:31 | 54.43023 | 50.34744 | 14459 ft | 267 kts | 205° |
| 2026-04-27 19:31 | 54.41300 | 50.33403 | 14094 ft | 263 kts | 205° |
| 2026-04-27 19:32 | 54.39627 | 50.32133 | 13780 ft | 258 kts | 203° |
| 2026-04-27 19:32 | 54.37943 | 50.31171 | 13758 ft | 257 kts | 198° |
| 2026-04-27 19:32 | 54.36165 | 50.30325 | 13755 ft | 266 kts | 197° |
| 2026-04-27 19:32 | 54.34398 | 50.29474 | 13754 ft | 267 kts | 198° |
| 2026-04-27 19:33 | 54.32619 | 50.28601 | 13753 ft | 265 kts | 198° |
| 2026-04-27 19:33 | 54.31437 | 50.28020 | 13752 ft | 265 kts | 198° |
| 2026-04-27 19:33 | 54.29064 | 50.26853 | 13758 ft | 266 kts | 198° |
| 2026-04-27 19:33 | 54.27294 | 50.25983 | 13675 ft | 263 kts | 198° |
| 2026-04-27 19:34 | 54.25542 | 50.25124 | 13412 ft | 256 kts | 198° |
| 2026-04-27 19:34 | 54.23832 | 50.24284 | 13076 ft | 258 kts | 198° |
| 2026-04-27 19:34 | 54.22097 | 50.23431 | 12719 ft | 263 kts | 198° |
| 2026-04-27 19:34 | 54.20335 | 50.22567 | 12361 ft | 260 kts | 198° |
| 2026-04-27 19:35 | 54.18597 | 50.21719 | 12008 ft | 256 kts | 198° |
| 2026-04-27 19:35 | 54.16895 | 50.20885 | 11659 ft | 253 kts | 199° |
| 2026-04-27 19:35 | 54.15212 | 50.20061 | 11319 ft | 256 kts | 199° |
| 2026-04-27 19:35 | 54.13464 | 50.19205 | 10957 ft | 261 kts | 199° |
| 2026-04-27 19:36 | 54.11734 | 50.18361 | 10598 ft | 259 kts | 199° |
| 2026-04-27 19:36 | 54.10002 | 50.17519 | 10244 ft | 255 kts | 199° |
| 2026-04-27 19:36 | 54.08306 | 50.16695 | 9929 ft | 250 kts | 199° |
| 2026-04-27 19:36 | 54.06651 | 50.15891 | 9757 ft | 240 kts | 199° |
| 2026-04-27 19:37 | 54.05071 | 50.15123 | 9641 ft | 230 kts | 199° |
| 2026-04-27 19:37 | 54.03535 | 50.14373 | 9306 ft | 234 kts | 200° |
| 2026-04-27 19:37 | 54.01953 | 50.13601 | 8990 ft | 236 kts | 199° |
| 2026-04-27 19:37 | 54.00361 | 50.12831 | 8683 ft | 233 kts | 199° |
| 2026-04-27 19:38 | 53.98815 | 50.12083 | 8394 ft | 229 kts | 200° |
| 2026-04-27 19:38 | 53.97296 | 50.11346 | 8108 ft | 229 kts | 200° |
| 2026-04-27 19:38 | 53.95747 | 50.10594 | 7809 ft | 233 kts | 200° |
| 2026-04-27 19:38 | 53.94178 | 50.09835 | 7511 ft | 234 kts | 200° |
| 2026-04-27 19:39 | 53.92627 | 50.09087 | 7221 ft | 230 kts | 200° |
| 2026-04-27 19:39 | 53.91095 | 50.08349 | 6930 ft | 226 kts | 200° |
| 2026-04-27 19:39 | 53.89590 | 50.07623 | 6648 ft | 223 kts | 200° |
| 2026-04-27 19:39 | 53.88040 | 50.06872 | 6363 ft | 228 kts | 200° |
| 2026-04-27 19:40 | 53.86525 | 50.06141 | 6076 ft | 228 kts | 200° |
| 2026-04-27 19:40 | 53.85005 | 50.05412 | 5784 ft | 225 kts | 200° |
| 2026-04-27 19:40 | 53.83497 | 50.04687 | 5498 ft | 222 kts | 200° |
| 2026-04-27 19:40 | 53.82026 | 50.03979 | 5219 ft | 219 kts | 200° |
| 2026-04-27 19:41 | 53.80558 | 50.03272 | 4939 ft | 224 kts | 200° |
| 2026-04-27 19:41 | 53.79044 | 50.02543 | 4654 ft | 222 kts | 200° |
| 2026-04-27 19:41 | 53.77571 | 50.01941 | 4498 ft | 217 kts | 191° |
| 2026-04-27 19:41 | 53.76031 | 50.02187 | 4270 ft | 233 kts | 169° |
| 2026-04-27 19:42 | 53.74504 | 50.03160 | 4091 ft | 231 kts | 166° |
| 2026-04-27 19:42 | 53.73051 | 50.04088 | 4019 ft | 218 kts | 167° |
| 2026-04-27 19:42 | 53.71639 | 50.04961 | 3994 ft | 211 kts | 167° |
| 2026-04-27 19:42 | 53.70281 | 50.05793 | 3988 ft | 208 kts | 168° |
| 2026-04-27 19:43 | 53.68917 | 50.06615 | 3874 ft | 208 kts | 168° |
| 2026-04-27 19:43 | 53.67538 | 50.07446 | 3599 ft | 208 kts | 168° |
| 2026-04-27 19:43 | 53.66185 | 50.08264 | 3339 ft | 206 kts | 168° |
| 2026-04-27 19:43 | 53.64838 | 50.09074 | 3056 ft | 204 kts | 168° |
| 2026-04-27 19:44 | 53.63516 | 50.09861 | 2812 ft | 199 kts | 168° |
| 2026-04-27 19:44 | 53.62238 | 50.10635 | 2538 ft | 194 kts | 168° |
| 2026-04-27 19:44 | 53.60983 | 50.11393 | 2291 ft | 181 kts | 168° |
| 2026-04-27 19:44 | 53.59873 | 50.12064 | 2057 ft | 163 kts | 169° |
| 2026-04-27 19:45 | 53.58851 | 50.12664 | 1885 ft | 144 kts | 170° |
| 2026-04-27 19:45 | 53.57982 | 50.13201 | 1702 ft | 131 kts | 170° |
| 2026-04-27 19:45 | 53.57150 | 50.13689 | 1537 ft | 125 kts | 171° |
| 2026-04-27 19:45 | 53.56317 | 50.14198 | 1430 ft | 127 kts | 168° |
| 2026-04-27 19:46 | 53.55461 | 50.14696 | 1228 ft | 129 kts | 170° |
| 2026-04-27 19:46 | 53.54624 | 50.15207 | 1067 ft | 128 kts | 169° |
| 2026-04-27 19:46 | 53.53772 | 50.15698 | 907 ft | 130 kts | 168° |
| 2026-04-27 19:46 | 53.52932 | 50.16213 | 742 ft | 128 kts | 167° |
| 2026-04-27 19:47 | 53.52094 | 50.16714 | 584 ft | 126 kts | 168° |
| 2026-04-27 19:47 | 53.51263 | 50.17209 | 498 ft | 125 kts | 167° |
| 2026-04-27 19:47 | 53.50496 | 50.17658 | 491 ft | 94 kts | 162° |
| 2026-04-27 19:47 | 53.50046 | 50.17928 | 491 ft | 56 kts | 160° |
| 2026-04-27 19:48 | 53.49732 | 50.18114 | 491 ft | 38 kts | 160° |
| 2026-04-27 19:48 | 53.49565 | 50.18221 | 491 ft | 20 kts | 159° |
| 2026-04-27 19:48 | 53.49433 | 50.18295 | 491 ft | 19 kts | 161° |
| 2026-04-27 19:48 | 53.49342 | 50.18313 | 491 ft | 11 kts | 204° |
| 2026-04-27 19:49 | 53.49296 | 50.18217 | 491 ft | 10 kts | 248° |
| 2026-04-27 19:49 | 53.49277 | 50.18110 | 491 ft | 0 kts | 263° |